sensor_id;sensor_type;location;lat;lon;timestamp;pressure;altitude;pressure_sealevel;temperature;humidity
71964;BME280;59834;52.124;5.422;2023-05-12T00:01:01;101767.97;;;11.57;100.00
71964;BME280;59834;52.124;5.422;2023-05-12T00:03:28;101771.41;;;11.58;100.00
71964;BME280;59834;52.124;5.422;2023-05-12T00:05:55;101763.56;;;11.58;100.00
71964;BME280;59834;52.124;5.422;2023-05-12T00:08:25;101764.72;;;11.52;100.00
71964;BME280;59834;52.124;5.422;2023-05-12T00:10:52;101761.16;;;11.53;100.00
71964;BME280;59834;52.124;5.422;2023-05-12T00:13:18;101763.97;;;11.50;100.00
71964;BME280;59834;52.124;5.422;2023-05-12T00:15:50;101759.56;;;11.51;100.00
71964;BME280;59834;52.124;5.422;2023-05-12T00:18:16;101760.72;;;11.45;100.00
71964;BME280;59834;52.124;5.422;2023-05-12T00:20:43;101750.25;;;11.45;100.00
71964;BME280;59834;52.124;5.422;2023-05-12T00:23:11;101757.31;;;11.43;100.00
71964;BME280;59834;52.124;5.422;2023-05-12T00:25:39;101753.88;;;11.43;100.00
71964;BME280;59834;52.124;5.422;2023-05-12T00:28:06;101752.19;;;11.42;100.00
71964;BME280;59834;52.124;5.422;2023-05-12T00:30:33;101746.00;;;11.43;100.00
71964;BME280;59834;52.124;5.422;2023-05-12T00:32:59;101752.97;;;11.44;100.00
71964;BME280;59834;52.124;5.422;2023-05-12T00:35:27;101745.25;;;11.41;100.00
71964;BME280;59834;52.124;5.422;2023-05-12T00:37:54;101743.63;;;11.38;100.00
71964;BME280;59834;52.124;5.422;2023-05-12T00:40:21;101748.94;;;11.37;100.00
71964;BME280;59834;52.124;5.422;2023-05-12T00:42:47;101748.03;;;11.38;100.00
71964;BME280;59834;52.124;5.422;2023-05-12T00:45:15;101737.88;;;11.31;100.00
71964;BME280;59834;52.124;5.422;2023-05-12T00:47:43;101747.41;;;11.32;100.00
71964;BME280;59834;52.124;5.422;2023-05-12T00:50:10;101741.47;;;11.29;100.00
71964;BME280;59834;52.124;5.422;2023-05-12T00:52:37;101736.34;;;11.27;100.00
71964;BME280;59834;52.124;5.422;2023-05-12T00:55:04;101749.44;;;11.27;100.00
71964;BME280;59834;52.124;5.422;2023-05-12T00:57:32;101738.28;;;11.24;100.00
71964;BME280;59834;52.124;5.422;2023-05-12T00:59:59;101736.66;;;11.21;100.00
71964;BME280;59834;52.124;5.422;2023-05-12T01:02:25;101734.09;;;11.20;100.00
71964;BME280;59834;52.124;5.422;2023-05-12T01:04:54;101733.19;;;11.21;100.00
71964;BME280;59834;52.124;5.422;2023-05-12T01:07:21;101731.41;;;11.21;100.00
71964;BME280;59834;52.124;5.422;2023-05-12T01:09:55;101729.72;;;11.20;100.00
71964;BME280;59834;52.124;5.422;2023-05-12T01:12:22;101726.16;;;11.21;100.00
71964;BME280;59834;52.124;5.422;2023-05-12T01:14:51;101709.66;;;11.19;100.00
71964;BME280;59834;52.124;5.422;2023-05-12T01:17:19;101711.59;;;11.16;100.00
71964;BME280;59834;52.124;5.422;2023-05-12T01:19:49;101716.84;;;11.16;100.00
71964;BME280;59834;52.124;5.422;2023-05-12T01:22:17;101715.16;;;11.15;100.00
71964;BME280;59834;52.124;5.422;2023-05-12T01:25:02;101709.06;;;11.14;100.00
71964;BME280;59834;52.124;5.422;2023-05-12T01:27:29;101709.97;;;11.13;100.00
71964;BME280;59834;52.124;5.422;2023-05-12T01:29:58;101707.34;;;11.13;100.00
71964;BME280;59834;52.124;5.422;2023-05-12T01:32:25;101710.75;;;11.15;100.00
71964;BME280;59834;52.124;5.422;2023-05-12T01:34:52;101712.53;;;11.15;100.00
71964;BME280;59834;52.124;5.422;2023-05-12T01:37:18;101713.38;;;11.15;100.00
71964;BME280;59834;52.124;5.422;2023-05-12T01:39:45;101712.44;;;11.16;100.00
71964;BME280;59834;52.124;5.422;2023-05-12T01:42:15;101712.53;;;11.15;100.00
71964;BME280;59834;52.124;5.422;2023-05-12T01:44:42;101707.34;;;11.13;100.00
71964;BME280;59834;52.124;5.422;2023-05-12T01:47:08;101708.91;;;11.17;100.00
71964;BME280;59834;52.124;5.422;2023-05-12T01:49:39;101710.59;;;11.18;100.00
71964;BME280;59834;52.124;5.422;2023-05-12T01:52:06;101710.59;;;11.18;100.00
71964;BME280;59834;52.124;5.422;2023-05-12T01:54:32;101713.22;;;11.18;100.00
71964;BME280;59834;52.124;5.422;2023-05-12T01:56:59;101713.13;;;11.20;100.00
71964;BME280;59834;52.124;5.422;2023-05-12T01:59:26;101716.63;;;11.20;100.00
71964;BME280;59834;52.124;5.422;2023-05-12T02:01:52;101717.53;;;11.19;100.00
71964;BME280;59834;52.124;5.422;2023-05-12T02:04:19;101715.84;;;11.18;100.00
71964;BME280;59834;52.124;5.422;2023-05-12T02:06:45;101710.59;;;11.18;100.00
71964;BME280;59834;52.124;5.422;2023-05-12T02:09:14;101710.69;;;11.17;100.00
71964;BME280;59834;52.124;5.422;2023-05-12T02:11:41;101716.78;;;11.17;100.00
71964;BME280;59834;52.124;5.422;2023-05-12T02:14:09;101709.81;;;11.16;100.00
71964;BME280;59834;52.124;5.422;2023-05-12T02:16:36;101706.34;;;11.16;100.00
71964;BME280;59834;52.124;5.422;2023-05-12T02:19:03;101708.13;;;11.15;100.00
71964;BME280;59834;52.124;5.422;2023-05-12T02:21:29;101707.19;;;11.16;100.00
71964;BME280;59834;52.124;5.422;2023-05-12T02:23:56;101710.75;;;11.15;100.00
71964;BME280;59834;52.124;5.422;2023-05-12T02:26:24;101703.00;;;11.14;100.00
71964;BME280;59834;52.124;5.422;2023-05-12T02:28:51;101707.28;;;11.15;100.00
71964;BME280;59834;52.124;5.422;2023-05-12T02:31:17;101703.84;;;11.14;100.00
71964;BME280;59834;52.124;5.422;2023-05-12T02:33:45;101707.34;;;11.13;100.00
71964;BME280;59834;52.124;5.422;2023-05-12T02:36:12;101704.75;;;11.13;100.00
71964;BME280;59834;52.124;5.422;2023-05-12T02:38:39;101701.38;;;11.11;100.00
71964;BME280;59834;52.124;5.422;2023-05-12T02:41:05;101704.00;;;11.11;100.00
71964;BME280;59834;52.124;5.422;2023-05-12T02:43:32;101695.34;;;11.09;100.00
71964;BME280;59834;52.124;5.422;2023-05-12T02:45:59;101698.81;;;11.09;100.00
71964;BME280;59834;52.124;5.422;2023-05-12T02:48:26;101695.28;;;11.11;100.00
71964;BME280;59834;52.124;5.422;2023-05-12T02:50:52;101692.72;;;11.09;100.00
71964;BME280;59834;52.124;5.422;2023-05-12T02:53:19;101700.53;;;11.11;100.00
71964;BME280;59834;52.124;5.422;2023-05-12T02:55:45;101697.06;;;11.10;100.00
71964;BME280;59834;52.124;5.422;2023-05-12T02:58:12;101694.59;;;11.07;100.00
71964;BME280;59834;52.124;5.422;2023-05-12T03:00:39;101687.75;;;11.04;100.00
71964;BME280;59834;52.124;5.422;2023-05-12T03:03:05;101689.53;;;11.04;100.00
71964;BME280;59834;52.124;5.422;2023-05-12T03:05:34;101694.75;;;11.04;100.00
71964;BME280;59834;52.124;5.422;2023-05-12T03:08:00;101696.53;;;11.03;100.00
71964;BME280;59834;52.124;5.422;2023-05-12T03:10:27;101704.47;;;11.02;100.00
71964;BME280;59834;52.124;5.422;2023-05-12T03:12:54;101699.22;;;11.02;100.00
71964;BME280;59834;52.124;5.422;2023-05-12T03:15:20;101689.75;;;10.99;100.00
71964;BME280;59834;52.124;5.422;2023-05-12T03:17:47;101688.91;;;10.99;100.00
71964;BME280;59834;52.124;5.422;2023-05-12T03:20:14;101690.66;;;10.98;100.00
71964;BME280;59834;52.124;5.422;2023-05-12T03:22:40;101679.34;;;10.98;100.00
71964;BME280;59834;52.124;5.422;2023-05-12T03:25:08;101687.97;;;11.00;100.00
71964;BME280;59834;52.124;5.422;2023-05-12T03:27:35;101677.41;;;11.01;100.00
71964;BME280;59834;52.124;5.422;2023-05-12T03:30:02;101682.56;;;11.03;100.00
71964;BME280;59834;52.124;5.422;2023-05-12T03:32:30;101683.50;;;11.02;100.00
71964;BME280;59834;52.124;5.422;2023-05-12T03:34:57;101681.72;;;11.02;100.00
71964;BME280;59834;52.124;5.422;2023-05-12T03:37:24;101679.94;;;11.03;100.00
71964;BME280;59834;52.124;5.422;2023-05-12T03:39:50;101674.66;;;11.04;100.00
71964;BME280;59834;52.124;5.422;2023-05-12T03:42:21;101672.88;;;11.05;100.00
71964;BME280;59834;52.124;5.422;2023-05-12T03:44:50;101687.75;;;11.04;100.00
71964;BME280;59834;52.124;5.422;2023-05-12T03:47:17;101679.03;;;11.04;100.00
71964;BME280;59834;52.124;5.422;2023-05-12T03:49:44;101686.91;;;11.04;100.00
71964;BME280;59834;52.124;5.422;2023-05-12T03:52:11;101678.19;;;11.03;100.00
71964;BME280;59834;52.124;5.422;2023-05-12T03:54:37;101682.66;;;11.01;100.00
71964;BME280;59834;52.124;5.422;2023-05-12T03:57:04;101671.50;;;10.98;100.00
71964;BME280;59834;52.124;5.422;2023-05-12T03:59:31;101681.88;;;10.99;100.00
71964;BME280;59834;52.124;5.422;2023-05-12T04:01:57;101668.78;;;10.99;100.00
71964;BME280;59834;52.124;5.422;2023-05-12T04:04:24;101673.03;;;11.02;100.00
71964;BME280;59834;52.124;5.422;2023-05-12T04:06:51;101672.09;;;11.03;100.00
71964;BME280;59834;52.124;5.422;2023-05-12T04:09:17;101673.03;;;11.02;100.00
71964;BME280;59834;52.124;5.422;2023-05-12T04:11:45;101676.47;;;11.02;100.00
71964;BME280;59834;52.124;5.422;2023-05-12T04:14:11;101678.09;;;11.05;100.00
71964;BME280;59834;52.124;5.422;2023-05-12T04:16:41;101677.16;;;11.06;100.00
71964;BME280;59834;52.124;5.422;2023-05-12T04:19:07;101675.38;;;11.06;100.00
71964;BME280;59834;52.124;5.422;2023-05-12T04:21:34;101677.94;;;11.08;100.00
71964;BME280;59834;52.124;5.422;2023-05-12T04:24:01;101684.88;;;11.09;100.00
71964;BME280;59834;52.124;5.422;2023-05-12T04:26:27;101684.72;;;11.12;100.00
71964;BME280;59834;52.124;5.422;2023-05-12T04:28:54;101684.66;;;11.14;100.00
71964;BME280;59834;52.124;5.422;2023-05-12T04:31:21;101689.78;;;11.15;100.00
71964;BME280;59834;52.124;5.422;2023-05-12T04:33:47;101686.25;;;11.16;100.00
71964;BME280;59834;52.124;5.422;2023-05-12T04:36:14;101691.47;;;11.16;100.00
71964;BME280;59834;52.124;5.422;2023-05-12T04:38:41;101694.88;;;11.18;100.00
71964;BME280;59834;52.124;5.422;2023-05-12T04:41:08;101690.56;;;11.17;100.00
71964;BME280;59834;52.124;5.422;2023-05-12T04:43:34;101694.88;;;11.18;100.00
71964;BME280;59834;52.124;5.422;2023-05-12T04:46:04;101693.88;;;11.21;100.00
71964;BME280;59834;52.124;5.422;2023-05-12T04:48:30;101695.50;;;11.23;100.00
71964;BME280;59834;52.124;5.422;2023-05-12T04:50:58;101699.72;;;11.26;100.00
71964;BME280;59834;52.124;5.422;2023-05-12T04:53:28;101703.16;;;11.26;100.00
71964;BME280;59834;52.124;5.422;2023-05-12T04:55:59;101701.34;;;11.28;100.00
71964;BME280;59834;52.124;5.422;2023-05-12T04:58:26;101709.97;;;11.30;100.00
71964;BME280;59834;52.124;5.422;2023-05-12T05:00:53;101703.00;;;11.29;100.00
71964;BME280;59834;52.124;5.422;2023-05-12T05:03:19;101707.19;;;11.33;100.00
71964;BME280;59834;52.124;5.422;2023-05-12T05:05:46;101716.81;;;11.33;100.00
71964;BME280;59834;52.124;5.422;2023-05-12T05:08:14;101723.66;;;11.36;100.00
71964;BME280;59834;52.124;5.422;2023-05-12T05:10:40;101726.13;;;11.39;100.00
71964;BME280;59834;52.124;5.422;2023-05-12T05:13:07;101727.81;;;11.40;100.00
71964;BME280;59834;52.124;5.422;2023-05-12T05:15:33;101735.50;;;11.43;100.00
71964;BME280;59834;52.124;5.422;2023-05-12T05:18:00;101742.47;;;11.44;100.00
71964;BME280;59834;52.124;5.422;2023-05-12T05:20:27;101742.31;;;11.47;100.00
71964;BME280;59834;52.124;5.422;2023-05-12T05:22:54;101740.44;;;11.49;100.00
71964;BME280;59834;52.124;5.422;2023-05-12T05:25:21;101735.13;;;11.50;100.00
71964;BME280;59834;52.124;5.422;2023-05-12T05:27:48;101740.13;;;11.55;100.00
71964;BME280;59834;52.124;5.422;2023-05-12T05:30:14;101752.28;;;11.56;100.00
71964;BME280;59834;52.124;5.422;2023-05-12T05:32:41;101734.78;;;11.56;100.00
71964;BME280;59834;52.124;5.422;2023-05-12T05:35:07;101730.16;;;11.62;100.00
71964;BME280;59834;52.124;5.422;2023-05-12T05:37:34;101738.59;;;11.67;100.00
71964;BME280;59834;52.124;5.422;2023-05-12T05:40:01;101727.09;;;11.69;100.00
71964;BME280;59834;52.124;5.422;2023-05-12T05:42:28;101733.13;;;11.71;100.00
71964;BME280;59834;52.124;5.422;2023-05-12T05:44:54;101734.81;;;11.72;100.00
71964;BME280;59834;52.124;5.422;2023-05-12T05:47:21;101737.00;;;11.80;100.00
71964;BME280;59834;52.124;5.422;2023-05-12T05:49:50;101735.06;;;11.84;100.00
71964;BME280;59834;52.124;5.422;2023-05-12T05:52:16;101749.94;;;11.85;100.00
71964;BME280;59834;52.124;5.422;2023-05-12T05:54:43;101748.94;;;11.87;100.00
71964;BME280;59834;52.124;5.422;2023-05-12T05:57:10;101752.47;;;11.86;100.00
71964;BME280;59834;52.124;5.422;2023-05-12T05:59:36;101750.59;;;11.88;100.00
71964;BME280;59834;52.124;5.422;2023-05-12T06:02:04;101759.16;;;11.92;100.00
71964;BME280;59834;52.124;5.422;2023-05-12T06:04:31;101759.00;;;11.95;100.00
71964;BME280;59834;52.124;5.422;2023-05-12T06:06:57;101754.50;;;11.97;100.00
71964;BME280;59834;52.124;5.422;2023-05-12T06:09:24;101759.66;;;11.98;100.00
71964;BME280;59834;52.124;5.422;2023-05-12T06:11:50;101770.84;;;12.02;100.00
71964;BME280;59834;52.124;5.422;2023-05-12T06:14:17;101774.25;;;12.04;100.00
71964;BME280;59834;52.124;5.422;2023-05-12T06:16:43;101771.25;;;12.10;100.00
71964;BME280;59834;52.124;5.422;2023-05-12T06:19:10;101777.13;;;12.15;100.00
71964;BME280;59834;52.124;5.422;2023-05-12T06:21:38;101769.81;;;12.20;100.00
71964;BME280;59834;52.124;5.422;2023-05-12T06:24:04;101775.78;;;12.24;100.00
71964;BME280;59834;52.124;5.422;2023-05-12T06:26:31;101782.38;;;12.31;100.00
71964;BME280;59834;52.124;5.422;2023-05-12T06:28:57;101793.38;;;12.38;100.00
71964;BME280;59834;52.124;5.422;2023-05-12T06:31:24;101783.22;;;12.47;100.00
71964;BME280;59834;52.124;5.422;2023-05-12T06:33:51;101787.06;;;12.56;100.00
71964;BME280;59834;52.124;5.422;2023-05-12T06:36:17;101787.00;;;12.58;100.00
71964;BME280;59834;52.124;5.422;2023-05-12T06:38:44;101783.88;;;12.51;100.00
71964;BME280;59834;52.124;5.422;2023-05-12T06:41:10;101779.53;;;12.50;100.00
71964;BME280;59834;52.124;5.422;2023-05-12T06:43:37;101789.97;;;12.52;100.00
71964;BME280;59834;52.124;5.422;2023-05-12T06:46:03;101794.22;;;12.54;100.00
71964;BME280;59834;52.124;5.422;2023-05-12T06:48:30;101788.75;;;12.57;100.00
71964;BME280;59834;52.124;5.422;2023-05-12T06:50:57;101799.88;;;12.62;100.00
71964;BME280;59834;52.124;5.422;2023-05-12T06:53:24;101803.31;;;12.63;100.00
71964;BME280;59834;52.124;5.422;2023-05-12T06:55:51;101809.25;;;12.66;100.00
71964;BME280;59834;52.124;5.422;2023-05-12T06:58:18;101811.63;;;12.71;100.00
71964;BME280;59834;52.124;5.422;2023-05-12T07:00:47;101813.81;;;12.79;100.00
71964;BME280;59834;52.124;5.422;2023-05-12T07:03:14;101809.97;;;12.84;100.00
71964;BME280;59834;52.124;5.422;2023-05-12T07:05:41;101808.59;;;12.93;100.00
71964;BME280;59834;52.124;5.422;2023-05-12T07:08:08;101807.81;;;13.07;100.00
71964;BME280;59834;52.124;5.422;2023-05-12T07:10:34;101802.41;;;13.24;100.00
71964;BME280;59834;52.124;5.422;2023-05-12T07:13:01;101813.34;;;13.32;100.00
71964;BME280;59834;52.124;5.422;2023-05-12T07:15:29;101807.44;;;13.43;100.00
71964;BME280;59834;52.124;5.422;2023-05-12T07:17:58;101816.28;;;13.56;100.00
71964;BME280;59834;52.124;5.422;2023-05-12T07:20:25;101816.03;;;13.75;100.00
71964;BME280;59834;52.124;5.422;2023-05-12T07:22:52;101810.81;;;13.88;100.00
71964;BME280;59834;52.124;5.422;2023-05-12T07:25:20;101817.97;;;14.00;100.00
71964;BME280;59834;52.124;5.422;2023-05-12T07:27:47;101808.41;;;13.99;100.00
71964;BME280;59834;52.124;5.422;2023-05-12T07:30:15;101813.63;;;14.13;100.00
71964;BME280;59834;52.124;5.422;2023-05-12T07:32:42;101813.72;;;14.26;100.00
71964;BME280;59834;52.124;5.422;2023-05-12T07:35:09;101821.50;;;14.42;100.00
71964;BME280;59834;52.124;5.422;2023-05-12T07:37:36;101817.34;;;14.52;100.00
71964;BME280;59834;52.124;5.422;2023-05-12T07:40:03;101818.28;;;14.51;99.94
71964;BME280;59834;52.124;5.422;2023-05-12T07:42:30;101818.47;;;14.75;98.58
71964;BME280;59834;52.124;5.422;2023-05-12T07:44:57;101819.19;;;15.04;98.07
71964;BME280;59834;52.124;5.422;2023-05-12T07:47:23;101827.47;;;15.38;96.70
71964;BME280;59834;52.124;5.422;2023-05-12T07:49:50;101824.72;;;15.40;93.50
71964;BME280;59834;52.124;5.422;2023-05-12T07:52:17;101816.81;;;15.40;93.94
71964;BME280;59834;52.124;5.422;2023-05-12T07:54:46;101829.28;;;15.50;93.39
71964;BME280;59834;52.124;5.422;2023-05-12T07:57:13;101826.84;;;15.60;92.41
71964;BME280;59834;52.124;5.422;2023-05-12T07:59:40;101832.63;;;15.65;92.31
71964;BME280;59834;52.124;5.422;2023-05-12T08:02:06;101832.22;;;15.59;91.19
71964;BME280;59834;52.124;5.422;2023-05-12T08:04:33;101832.84;;;15.62;91.18
71964;BME280;59834;52.124;5.422;2023-05-12T08:07:00;101834.88;;;15.84;90.58
71964;BME280;59834;52.124;5.422;2023-05-12T08:09:26;101833.00;;;15.86;90.46
71964;BME280;59834;52.124;5.422;2023-05-12T08:11:53;101829.38;;;15.87;89.58
71964;BME280;59834;52.124;5.422;2023-05-12T08:14:20;101833.91;;;15.98;90.06
71964;BME280;59834;52.124;5.422;2023-05-12T08:16:47;101831.75;;;16.16;88.56
71964;BME280;59834;52.124;5.422;2023-05-12T08:19:14;101835.47;;;16.13;87.76
71964;BME280;59834;52.124;5.422;2023-05-12T08:21:41;101841.72;;;16.36;88.70
71964;BME280;59834;52.124;5.422;2023-05-12T08:24:08;101828.03;;;16.55;87.00
71964;BME280;59834;52.124;5.422;2023-05-12T08:26:34;101833.06;;;16.47;87.63
71964;BME280;59834;52.124;5.422;2023-05-12T08:29:01;101839.97;;;16.61;85.60
71964;BME280;59834;52.124;5.422;2023-05-12T08:31:28;101842.56;;;16.73;85.76
71964;BME280;59834;52.124;5.422;2023-05-12T08:33:54;101840.50;;;16.53;85.24
71964;BME280;59834;52.124;5.422;2023-05-12T08:36:36;101840.81;;;16.61;85.24
71964;BME280;59834;52.124;5.422;2023-05-12T08:39:03;101843.50;;;16.48;83.79
71964;BME280;59834;52.124;5.422;2023-05-12T08:41:40;101842.69;;;16.35;85.10
71964;BME280;59834;52.124;5.422;2023-05-12T08:44:10;101842.84;;;16.58;83.83
71964;BME280;59834;52.124;5.422;2023-05-12T08:46:37;101857.50;;;16.62;83.81
71964;BME280;59834;52.124;5.422;2023-05-12T08:49:05;101858.72;;;16.82;82.31
71964;BME280;59834;52.124;5.422;2023-05-12T08:51:35;101852.53;;;17.29;81.06
71964;BME280;59834;52.124;5.422;2023-05-12T08:54:03;101855.75;;;17.22;81.23
71964;BME280;59834;52.124;5.422;2023-05-12T08:56:31;101859.69;;;17.05;80.14
71964;BME280;59834;52.124;5.422;2023-05-12T08:59:01;101855.38;;;17.15;81.92
71964;BME280;59834;52.124;5.422;2023-05-12T09:01:29;101863.16;;;17.40;80.34
71964;BME280;59834;52.124;5.422;2023-05-12T09:03:55;101866.50;;;17.31;78.76
71964;BME280;59834;52.124;5.422;2023-05-12T09:06:22;101868.47;;;17.40;78.66
71964;BME280;59834;52.124;5.422;2023-05-12T09:08:49;101864.53;;;17.68;76.16
71964;BME280;59834;52.124;5.422;2023-05-12T09:11:16;101864.94;;;17.98;76.25
71964;BME280;59834;52.124;5.422;2023-05-12T09:13:53;101867.09;;;17.81;76.69
71964;BME280;59834;52.124;5.422;2023-05-12T09:16:28;101870.88;;;17.66;76.56
71964;BME280;59834;52.124;5.422;2023-05-12T09:18:57;101872.47;;;17.57;76.76
71964;BME280;59834;52.124;5.422;2023-05-12T09:21:24;101878.50;;;17.71;75.65
71964;BME280;59834;52.124;5.422;2023-05-12T09:26:23;101871.91;;;17.76;73.90
71964;BME280;59834;52.124;5.422;2023-05-12T09:28:54;101873.69;;;17.76;73.08
71964;BME280;59834;52.124;5.422;2023-05-12T09:31:28;101876.19;;;17.66;74.45
71964;BME280;59834;52.124;5.422;2023-05-12T09:33:57;101878.84;;;17.66;73.45
71964;BME280;59834;52.124;5.422;2023-05-12T09:36:24;101879.94;;;17.75;71.33
71964;BME280;59834;52.124;5.422;2023-05-12T09:39:01;101887.06;;;17.74;71.31
71964;BME280;59834;52.124;5.422;2023-05-12T09:41:33;101887.06;;;17.74;71.29
71964;BME280;59834;52.124;5.422;2023-05-12T09:44:00;101888.81;;;17.74;71.55
71964;BME280;59834;52.124;5.422;2023-05-12T09:46:26;101873.78;;;17.63;71.80
71964;BME280;59834;52.124;5.422;2023-05-12T09:48:56;101894.25;;;17.61;72.61
71964;BME280;59834;52.124;5.422;2023-05-12T09:51:25;101891.84;;;17.69;71.03
71964;BME280;59834;52.124;5.422;2023-05-12T09:53:54;101892.22;;;17.76;72.77
71964;BME280;59834;52.124;5.422;2023-05-12T09:56:21;101898.16;;;18.13;71.84
71964;BME280;59834;52.124;5.422;2023-05-12T09:58:49;101898.81;;;18.71;69.10
71964;BME280;59834;52.124;5.422;2023-05-12T10:01:17;101886.94;;;18.98;68.07
71964;BME280;59834;52.124;5.422;2023-05-12T10:03:52;101888.47;;;19.12;66.91
71964;BME280;59834;52.124;5.422;2023-05-12T10:06:30;101889.13;;;18.93;66.24
71964;BME280;59834;52.124;5.422;2023-05-12T10:09:19;101887.31;;;18.93;68.17
71964;BME280;59834;52.124;5.422;2023-05-12T10:11:49;101892.28;;;18.87;68.05
71964;BME280;59834;52.124;5.422;2023-05-12T10:14:21;101890.13;;;18.80;65.89
71964;BME280;59834;52.124;5.422;2023-05-12T10:16:50;101888.78;;;18.86;66.43
71964;BME280;59834;52.124;5.422;2023-05-12T10:19:17;101897.53;;;18.98;65.85
71964;BME280;59834;52.124;5.422;2023-05-12T10:21:45;101897.03;;;19.04;65.98
71964;BME280;59834;52.124;5.422;2023-05-12T10:24:14;101893.50;;;18.82;65.17
71964;BME280;59834;52.124;5.422;2023-05-12T10:26:43;101892.44;;;18.85;65.98
71964;BME280;59834;52.124;5.422;2023-05-12T10:29:11;101891.41;;;18.97;65.42
71964;BME280;59834;52.124;5.422;2023-05-12T10:31:39;101895.78;;;19.19;64.55
71964;BME280;59834;52.124;5.422;2023-05-12T10:34:05;101886.00;;;19.41;64.11
71964;BME280;59834;52.124;5.422;2023-05-12T10:36:44;101893.88;;;19.63;64.70
71964;BME280;59834;52.124;5.422;2023-05-12T10:39:12;101884.41;;;19.70;63.23
71964;BME280;59834;52.124;5.422;2023-05-12T10:41:42;101891.06;;;19.86;62.00
71964;BME280;59834;52.124;5.422;2023-05-12T10:44:09;101883.88;;;19.76;62.55
71964;BME280;59834;52.124;5.422;2023-05-12T10:46:36;101894.09;;;20.02;62.85
71964;BME280;59834;52.124;5.422;2023-05-12T10:49:07;101886.06;;;20.23;62.05
71964;BME280;59834;52.124;5.422;2023-05-12T10:51:46;101885.97;;;20.04;62.33
71964;BME280;59834;52.124;5.422;2023-05-12T10:54:24;101892.50;;;19.90;62.67
71964;BME280;59834;52.124;5.422;2023-05-12T10:56:57;101890.97;;;19.66;63.40
71964;BME280;59834;52.124;5.422;2023-05-12T10:59:25;101887.81;;;19.61;61.34
71964;BME280;59834;52.124;5.422;2023-05-12T11:01:57;101896.75;;;19.60;61.23
71964;BME280;59834;52.124;5.422;2023-05-12T11:04:52;101885.25;;;19.71;61.41
71964;BME280;59834;52.124;5.422;2023-05-12T11:07:25;101892.28;;;20.02;60.79
71964;BME280;59834;52.124;5.422;2023-05-12T11:09:54;101898.25;;;20.25;58.18
71964;BME280;59834;52.124;5.422;2023-05-12T11:12:29;101895.34;;;20.48;58.58
71964;BME280;59834;52.124;5.422;2023-05-12T11:15:02;101887.38;;;20.48;58.14
71964;BME280;59834;52.124;5.422;2023-05-12T11:17:28;101893.22;;;20.32;58.92
71964;BME280;59834;52.124;5.422;2023-05-12T11:19:55;101893.06;;;20.34;56.95
71964;BME280;59834;52.124;5.422;2023-05-12T11:22:22;101895.00;;;20.32;56.88
71964;BME280;59834;52.124;5.422;2023-05-12T11:24:50;101886.88;;;20.23;56.45
71964;BME280;59834;52.124;5.422;2023-05-12T11:27:19;101902.38;;;20.18;57.35
71964;BME280;59834;52.124;5.422;2023-05-12T11:29:57;101901.53;;;20.18;57.60
71964;BME280;59834;52.124;5.422;2023-05-12T11:32:24;101905.84;;;20.40;57.14
71964;BME280;59834;52.124;5.422;2023-05-12T11:34:51;101911.06;;;20.51;56.80
71964;BME280;59834;52.124;5.422;2023-05-12T11:37:18;101908.91;;;20.45;57.11
71964;BME280;59834;52.124;5.422;2023-05-12T11:39:46;101901.50;;;20.39;57.20
71964;BME280;59834;52.124;5.422;2023-05-12T11:42:13;101900.47;;;20.70;56.75
71964;BME280;59834;52.124;5.422;2023-05-12T11:44:46;101897.97;;;20.98;55.17
71964;BME280;59834;52.124;5.422;2023-05-12T11:47:14;101905.56;;;21.03;53.65
71964;BME280;59834;52.124;5.422;2023-05-12T11:49:49;101901.06;;;21.13;54.05
71964;BME280;59834;52.124;5.422;2023-05-12T11:52:17;101901.31;;;21.29;53.31
71964;BME280;59834;52.124;5.422;2023-05-12T11:54:58;101903.47;;;21.16;54.51
71964;BME280;59834;52.124;5.422;2023-05-12T11:57:33;101906.78;;;21.28;55.28
71964;BME280;59834;52.124;5.422;2023-05-12T12:00:03;101897.81;;;21.29;55.08
71964;BME280;59834;52.124;5.422;2023-05-12T12:02:30;101895.75;;;21.03;55.52
71964;BME280;59834;52.124;5.422;2023-05-12T12:04:58;101905.97;;;21.17;54.98
71964;BME280;59834;52.124;5.422;2023-05-12T12:10:09;101906.66;;;20.90;54.47
71964;BME280;59834;52.124;5.422;2023-05-12T12:12:37;101911.69;;;20.84;55.44
71964;BME280;59834;52.124;5.422;2023-05-12T12:15:04;101906.50;;;20.73;54.55
71964;BME280;59834;52.124;5.422;2023-05-12T12:17:31;101904.22;;;20.58;54.77
71964;BME280;59834;52.124;5.422;2023-05-12T12:19:58;101906.91;;;20.68;53.68
71964;BME280;59834;52.124;5.422;2023-05-12T12:22:25;101905.94;;;20.79;54.72
71964;BME280;59834;52.124;5.422;2023-05-12T12:24:52;101907.88;;;20.57;54.55
71964;BME280;59834;52.124;5.422;2023-05-12T12:27:18;101903.47;;;20.46;54.34
71964;BME280;59834;52.124;5.422;2023-05-12T12:29:45;101908.41;;;20.51;54.17
71964;BME280;59834;52.124;5.422;2023-05-12T12:32:15;101906.25;;;20.45;54.06
71964;BME280;59834;52.124;5.422;2023-05-12T12:34:41;101910.81;;;20.64;53.20
71964;BME280;59834;52.124;5.422;2023-05-12T12:37:10;101908.47;;;20.80;52.22
71964;BME280;59834;52.124;5.422;2023-05-12T12:39:36;101907.19;;;20.75;52.64
71964;BME280;59834;52.124;5.422;2023-05-12T12:42:04;101910.69;;;20.75;53.32
71964;BME280;59834;52.124;5.422;2023-05-12T12:44:31;101917.31;;;20.90;53.47
71964;BME280;59834;52.124;5.422;2023-05-12T12:46:58;101918.72;;;21.04;54.26
71964;BME280;59834;52.124;5.422;2023-05-12T12:49:25;101910.28;;;21.18;53.67
71964;BME280;59834;52.124;5.422;2023-05-12T12:51:52;101916.72;;;21.26;54.31